Time;durP1;ratioP1;P1;durP2;ratioP2;P2;SDS_P1;SDS_P2;PMS_P1;PMS_P2;Temp;Humidity;BMP_temperature;BMP_pressure;BME280_temperature;BME280_humidity;BME280_pressure;Samples;Min_cycle;Max_cycle;Signal;HPM_P1;HPM_P2
2024/05/07 00:01:27;;;;;;;12.80;8.25;;;;;;;15.02;100.00;101499.03;5393857;25;93865;-82
2024/05/07 00:03:53;;;;;;;12.77;8.50;;;;;;;14.97;100.00;101489.63;5424772;25;93886;-82
2024/05/07 00:06:18;;;;;;;17.48;9.30;;;;;;;14.98;100.00;101504.59;5391794;25;94739;-82
2024/05/07 00:08:44;;;;;;;11.63;8.25;;;;;;;14.97;100.00;101510.84;5420545;25;95634;-82
2024/05/07 00:11:09;;;;;;;13.57;8.18;;;;;;;14.87;100.00;101502.47;5396942;25;93862;-82
2024/05/07 00:13:35;;;;;;;17.42;9.38;;;;;;;14.75;100.00;101485.38;5388696;25;94046;-82
2024/05/07 00:16:00;;;;;;;11.63;8.00;;;;;;;14.84;100.00;101510.59;5391339;25;94394;-82
2024/05/07 00:18:25;;;;;;;14.25;8.52;;;;;;;14.80;100.00;101509.03;5423248;25;96160;-82
2024/05/07 00:20:52;;;;;;;13.73;8.57;;;;;;;14.68;100.00;101491.06;5391572;25;93744;-82
2024/05/07 00:23:17;;;;;;;11.93;8.60;;;;;;;14.81;100.00;101524.84;5422130;25;93855;-82
2024/05/07 00:25:43;;;;;;;15.68;8.82;;;;;;;14.75;100.00;101516.31;5395913;25;96792;-82
2024/05/07 00:28:08;;;;;;;13.48;8.73;;;;;;;14.75;100.00;101525.13;5427324;25;94825;-82
2024/05/07 00:30:34;;;;;;;14.00;9.52;;;;;;;14.63;100.00;101510.69;5397505;25;93969;-82
2024/05/07 00:33:00;;;;;;;14.25;8.65;;;;;;;14.75;100.00;101535.75;5399473;25;93919;-82
2024/05/07 00:35:25;;;;;;;13.40;8.38;;;;;;;14.60;100.00;101508.19;5392958;25;94561;-82
2024/05/07 00:37:51;;;;;;;15.07;9.85;;;;;;;14.73;100.00;101534.13;5430644;25;94803;-82
2024/05/07 00:40:16;;;;;;;15.48;8.82;;;;;;;14.72;100.00;101545.63;5439237;25;93831;-83
2024/05/07 00:42:50;;;;;;;14.10;8.80;;;;;;;14.68;100.00;101536.97;5433164;25;93783;-82
2024/05/07 00:45:15;;;;;;;14.85;9.55;;;;;;;14.64;100.00;101543.34;5397201;25;94690;-82
2024/05/07 00:47:40;;;;;;;12.50;7.95;;;;;;;14.59;100.00;101540.94;5395199;25;94467;-83
2024/05/07 00:50:07;;;;;;;13.43;8.77;;;;;;;14.55;100.00;101535.84;5430492;25;93753;-83
2024/05/07 00:52:33;;;;;;;14.80;9.13;;;;;;;14.60;100.00;101552.38;5398053;25;94001;-83
2024/05/07 00:54:58;;;;;;;15.35;8.73;;;;;;;14.56;100.00;101545.50;5428262;25;95586;-82
2024/05/07 00:57:24;;;;;;;15.35;9.18;;;;;;;14.40;100.00;101510.91;5391278;25;94378;-82
2024/05/07 00:59:50;;;;;;;13.50;9.00;;;;;;;14.64;100.00;101554.84;5428862;25;93843;-82
2024/05/07 01:02:16;;;;;;;15.18;9.07;;;;;;;14.63;100.00;101555.75;5392529;25;93989;-82
2024/05/07 01:04:42;;;;;;;15.57;9.02;;;;;;;14.65;100.00;101564.50;5428728;25;95953;-82
2024/05/07 01:07:10;;;;;;;16.35;9.50;;;;;;;14.66;100.00;101568.00;5430733;25;94404;-82
2024/05/07 01:09:36;;;;;;;18.25;10.20;;;;;;;14.41;100.00;101526.75;5429070;25;94761;-82
2024/05/07 01:12:01;;;;;;;17.05;9.77;;;;;;;14.59;100.00;101554.16;5394483;25;94113;-82
2024/05/07 01:14:27;;;;;;;15.45;9.40;;;;;;;14.49;100.00;101552.91;5396657;25;94848;-81
2024/05/07 01:16:52;;;;;;;14.35;9.02;;;;;;;14.63;100.00;101578.75;5423744;25;95358;-82
2024/05/07 01:19:18;;;;;;;13.55;8.48;;;;;;;14.60;100.00;101571.78;5391888;25;93797;-82
2024/05/07 01:21:43;;;;;;;13.23;8.63;;;;;;;14.56;100.00;101566.72;5392786;25;93925;-82
2024/05/07 01:24:09;;;;;;;15.95;8.93;;;;;;;14.58;100.00;101578.13;5423860;25;94333;-82
2024/05/07 01:26:35;;;;;;;12.23;8.25;;;;;;;14.49;100.00;101568.81;5391781;25;94765;-82
2024/05/07 01:29:05;;;;;;;13.10;8.50;;;;;;;14.54;100.00;101579.19;5393288;25;93870;-82
2024/05/07 01:31:34;;;;;;;14.00;7.97;;;;;;;14.52;100.00;101579.25;5390320;25;94018;-82
2024/05/07 01:33:59;;;;;;;13.43;8.35;;;;;;;14.50;100.00;101574.97;5429122;25;94714;-82
2024/05/07 01:36:25;;;;;;;13.63;8.43;;;;;;;14.51;100.00;101580.19;5391573;25;96421;-81
2024/05/07 01:38:51;;;;;;;13.70;8.50;;;;;;;14.50;100.00;101580.28;5394764;25;93782;-82
2024/05/07 01:41:17;;;;;;;12.95;7.55;;;;;;;14.47;100.00;101583.88;5389491;25;93920;-82
2024/05/07 01:43:43;;;;;;;12.70;7.43;;;;;;;14.44;100.00;101586.66;5428425;25;94710;-82
2024/05/07 01:46:08;;;;;;;13.07;7.57;;;;;;;14.39;100.00;101581.59;5392666;25;94406;-82
2024/05/07 01:48:33;;;;;;;12.15;7.43;;;;;;;14.27;100.00;101566.25;5394203;25;93786;-81
2024/05/07 01:50:59;;;;;;;10.77;7.38;;;;;;;14.38;100.00;101603.72;5390562;25;93959;-81
2024/05/07 01:53:24;;;;;;;13.45;7.93;;;;;;;14.37;100.00;101601.13;5423417;25;94360;-81
2024/05/07 01:55:50;;;;;;;12.48;6.97;;;;;;;14.33;100.00;101594.25;5424764;25;95653;-82
2024/05/07 01:58:15;;;;;;;13.60;7.55;;;;;;;14.35;100.00;101609.16;5393316;25;93817;-81
2024/05/07 02:00:41;;;;;;;13.48;7.65;;;;;;;14.11;100.00;101575.84;5421756;25;94045;-82
2024/05/07 02:03:11;;;;;;;12.65;7.57;;;;;;;14.11;100.00;101581.16;5398760;25;95067;-82
2024/05/07 02:05:37;;;;;;;15.27;7.93;;;;;;;14.23;100.00;101604.41;5395696;25;94692;-82
2024/05/07 02:08:02;;;;;;;13.65;7.75;;;;;;;14.25;100.00;101612.28;5417890;25;93726;-82
2024/05/07 02:10:30;;;;;;;13.05;7.28;;;;;;;14.23;100.00;101614.16;5423006;25;93987;-82
2024/05/07 02:12:55;;;;;;;11.82;6.75;;;;;;;14.20;100.00;101614.28;5421103;25;95867;-82
2024/05/07 02:15:21;;;;;;;12.18;6.72;;;;;;;13.93;100.00;101581.03;5424985;25;94202;-82
2024/05/07 02:17:46;;;;;;;11.95;7.18;;;;;;;14.07;100.00;101612.19;5421738;25;93840;-82
2024/05/07 02:20:12;;;;;;;11.93;6.78;;;;;;;14.12;100.00;101620.78;5424706;25;93819;-81
2024/05/07 02:22:40;;;;;;;11.75;7.32;;;;;;;13.96;100.00;101597.72;5426488;25;95949;-81
2024/05/07 02:25:06;;;;;;;11.18;6.90;;;;;;;14.09;100.00;101620.06;5384290;25;94439;-81
2024/05/07 02:27:31;;;;;;;13.38;7.60;;;;;;;14.07;100.00;101622.78;5424624;25;93765;-81
2024/05/07 02:29:57;;;;;;;11.15;6.50;;;;;;;13.89;100.00;101594.47;5427455;25;93899;-81
2024/05/07 02:32:22;;;;;;;12.95;7.75;;;;;;;13.99;100.00;101624.91;5428179;25;94756;-82
2024/05/07 02:34:48;;;;;;;13.40;7.68;;;;;;;13.86;100.00;101605.19;5394688;25;94336;-81
2024/05/07 02:37:13;;;;;;;11.60;6.97;;;;;;;13.93;100.00;101625.19;5426246;25;93864;-81
2024/05/07 02:39:38;;;;;;;14.30;7.80;;;;;;;13.95;100.00;101636.53;5392471;25;93892;-81
2024/05/07 02:42:04;;;;;;;14.18;7.88;;;;;;;13.75;100.00;101604.78;5424792;25;94761;-81
2024/05/07 02:44:30;;;;;;;12.75;6.93;;;;;;;13.70;100.00;101607.66;5393437;25;94656;-81
2024/05/07 02:46:55;;;;;;;14.23;7.82;;;;;;;13.87;100.00;101633.38;5429504;25;93828;-81
2024/05/07 02:49:20;;;;;;;12.73;7.13;;;;;;;13.67;100.00;101613.91;5424113;25;93787;-81
2024/05/07 02:51:46;;;;;;;13.43;7.60;;;;;;;13.64;100.00;101610.53;5388871;25;106717;-81
2024/05/07 02:54:11;;;;;;;15.80;7.75;;;;;;;13.77;100.00;101643.50;5389475;25;94674;-81
2024/05/07 02:56:36;;;;;;;14.40;7.80;;;;;;;13.58;100.00;101618.75;5388930;26;93946;-82
2024/05/07 02:59:02;;;;;;;13.43;8.45;;;;;;;13.71;100.00;101649.06;5390063;25;93948;-81
2024/05/07 03:01:27;;;;;;;14.98;7.90;;;;;;;13.66;100.00;101646.63;5382971;26;95572;-82
2024/05/07 03:03:53;;;;;;;14.13;8.68;;;;;;;13.37;100.00;101607.28;5389909;26;94680;-82
2024/05/07 03:06:18;;;;;;;16.60;8.25;;;;;;;13.60;100.00;101660.09;5384923;26;93816;-81
2024/05/07 03:08:44;;;;;;;13.52;7.95;;;;;;;13.51;100.00;101647.25;5396980;26;93901;-82
2024/05/07 03:11:09;;;;;;;15.30;8.80;;;;;;;13.47;100.00;101650.97;5390146;26;95527;-82
2024/05/07 03:13:35;;;;;;;15.73;8.82;;;;;;;13.32;100.00;101633.06;5389001;26;94736;-81
2024/05/07 03:16:00;;;;;;;15.07;8.50;;;;;;;13.38;100.00;101648.69;5385481;26;93779;-82
2024/05/07 03:18:25;;;;;;;14.70;8.18;;;;;;;13.37;100.00;101655.75;5383283;26;93819;-81
2024/05/07 03:20:51;;;;;;;13.75;8.20;;;;;;;13.46;100.00;101666.91;5393188;26;95819;-82
2024/05/07 03:23:16;;;;;;;15.73;8.18;;;;;;;13.44;100.00;101672.25;5386491;26;95753;-82
2024/05/07 03:25:41;;;;;;;13.93;7.85;;;;;;;13.35;100.00;101668.19;5388242;26;93806;-81
2024/05/07 03:28:07;;;;;;;13.23;7.90;;;;;;;13.36;100.00;101672.56;5388783;25;93769;-82
2024/05/07 03:30:33;;;;;;;14.45;8.68;;;;;;;13.08;100.00;101637.56;5390450;26;96648;-82
2024/05/07 03:32:58;;;;;;;11.88;7.65;;;;;;;13.31;100.00;101681.59;5383793;26;94871;-81
2024/05/07 03:35:26;;;;;;;14.05;7.97;;;;;;;13.14;100.00;101669.88;5392275;26;93842;-81
2024/05/07 03:37:57;;;;;;;13.48;8.65;;;;;;;13.27;100.00;101693.25;5382651;26;93917;-81
2024/05/07 03:40:22;;;;;;;17.15;8.32;;;;;;;13.25;100.00;101703.00;5387100;26;94750;-80
2024/05/07 03:42:48;;;;;;;15.90;8.35;;;;;;;13.00;100.00;101666.94;5381890;26;94389;-81
2024/05/07 03:45:14;;;;;;;12.85;7.55;;;;;;;13.10;100.00;101688.56;5383959;26;93783;-81
2024/05/07 03:47:39;;;;;;;12.02;7.30;;;;;;;13.16;100.00;101714.78;5389297;26;93954;-82
2024/05/07 03:50:05;;;;;;;16.60;8.77;;;;;;;12.94;100.00;101675.94;5385305;26;95517;-82
2024/05/07 03:52:31;;;;;;;13.13;7.70;;;;;;;12.89;100.00;101677.06;5390815;26;94443;-81
2024/05/07 03:54:56;;;;;;;13.18;7.57;;;;;;;13.02;100.00;101704.72;5393814;25;93990;-81
2024/05/07 03:57:21;;;;;;;13.27;6.85;;;;;;;13.05;100.00;101712.53;5393584;25;93979;-81
2024/05/07 03:59:47;;;;;;;13.57;7.88;;;;;;;13.03;100.00;101713.50;5394137;25;95263;-81
2024/05/07 04:02:12;;;;;;;14.35;7.80;;;;;;;13.04;100.00;101721.41;5423285;25;95514;-81
2024/05/07 04:04:38;;;;;;;13.85;8.70;;;;;;;12.97;100.00;101711.13;5393462;25;93801;-82
2024/05/07 04:07:03;;;;;;;14.30;7.93;;;;;;;13.01;100.00;101718.88;5399744;25;93916;-81
2024/05/07 04:09:28;;;;;;;12.35;7.68;;;;;;;12.94;100.00;101722.66;5392138;25;94637;-81
2024/05/07 04:11:54;;;;;;;12.88;6.75;;;;;;;12.94;100.00;101726.16;5392456;25;94726;-81
2024/05/07 04:14:19;;;;;;;17.17;7.35;;;;;;;12.92;100.00;101725.38;5393696;25;94718;-81
2024/05/07 04:16:45;;;;;;;13.43;7.80;;;;;;;12.82;100.00;101717.84;5422245;25;93861;-81
2024/05/07 04:19:10;;;;;;;15.65;7.85;;;;;;;12.91;100.00;101741.28;5394778;25;97875;-82
2024/05/07 04:21:35;;;;;;;11.30;6.60;;;;;;;12.83;100.00;101728.34;5393850;25;94385;-82
2024/05/07 04:24:01;;;;;;;12.07;7.35;;;;;;;12.72;100.00;101719.97;5396661;25;94107;-81
2024/05/07 04:26:26;;;;;;;11.27;7.20;;;;;;;12.87;100.00;101748.47;5391081;25;93974;-81
2024/05/07 04:28:52;;;;;;;12.43;7.43;;;;;;;12.69;100.00;101725.38;5390520;25;94512;-81
2024/05/07 04:31:17;;;;;;;12.60;7.75;;;;;;;12.70;100.00;101738.53;5392491;25;94459;-82
2024/05/07 04:33:44;;;;;;;15.68;7.93;;;;;;;12.81;100.00;101767.22;5423919;25;93743;-81
2024/05/07 04:36:13;;;;;;;13.48;7.80;;;;;;;12.80;100.00;101764.59;5395743;25;94491;-82
2024/05/07 04:38:38;;;;;;;13.45;6.72;;;;;;;12.59;100.00;101726.63;5423418;25;95062;-81
2024/05/07 04:41:04;;;;;;;14.25;7.15;;;;;;;12.58;100.00;101738.13;5429785;25;94717;-81
2024/05/07 04:43:32;;;;;;;14.57;7.13;;;;;;;12.70;100.00;101764.94;5388869;25;94787;-81
2024/05/07 04:46:00;;;;;;;16.25;8.25;;;;;;;12.69;100.00;101770.31;5422284;25;93791;-81
2024/05/07 04:48:26;;;;;;;12.82;7.55;;;;;;;12.52;100.00;101747.13;5392223;25;96632;-82
2024/05/07 04:50:51;;;;;;;15.02;7.35;;;;;;;12.71;100.00;101787.81;5425626;25;95450;-81
2024/05/07 04:53:17;;;;;;;13.35;7.95;;;;;;;12.56;100.00;101761.94;5424749;25;93748;-81
2024/05/07 04:55:43;;;;;;;13.45;7.53;;;;;;;12.69;100.00;101792.28;5389462;26;94010;-81
2024/05/07 04:58:18;;;;;;;11.73;7.03;;;;;;;12.71;100.00;101793.09;5390371;26;95200;-81
2024/05/07 05:00:44;;;;;;;12.80;6.88;;;;;;;12.69;100.00;101797.59;5387076;26;96924;-81
2024/05/07 05:03:13;;;;;;;13.52;8.25;;;;;;;12.71;100.00;101808.09;5389892;26;93812;-82
2024/05/07 05:05:39;;;;;;;13.57;7.40;;;;;;;12.66;100.00;101787.13;5385046;26;93956;-81
2024/05/07 05:08:25;;;;;;;12.50;7.22;;;;;;;12.75;100.00;101808.84;5388294;26;94673;-82
2024/05/07 05:10:55;;;;;;;15.88;7.05;;;;;;;12.78;100.00;101811.38;5383412;26;94417;-81
2024/05/07 05:13:20;;;;;;;12.95;8.52;;;;;;;12.81;100.00;101812.13;5385299;26;94471;-81
2024/05/07 05:15:46;;;;;;;15.27;7.90;;;;;;;12.82;100.00;101813.00;5385005;25;93988;-82
2024/05/07 05:18:11;;;;;;;11.05;7.00;;;;;;;12.86;100.00;101817.25;5389908;26;95550;-81
2024/05/07 05:20:37;;;;;;;11.63;6.88;;;;;;;12.60;100.00;101778.53;5388867;26;94582;-82
2024/05/07 05:23:02;;;;;;;12.27;6.95;;;;;;;12.59;100.00;101767.13;5388902;25;93783;-81
2024/05/07 05:25:27;;;;;;;12.45;6.72;;;;;;;12.89;100.00;101818.00;5388547;25;93813;-82
2024/05/07 05:27:53;;;;;;;12.75;7.55;;;;;;;13.01;100.00;101826.41;5386897;26;94592;-81
2024/05/07 05:30:19;;;;;;;12.52;7.43;;;;;;;13.06;100.00;101829.72;5372935;26;94414;-81
2024/05/07 05:32:44;;;;;;;12.20;6.93;;;;;;;13.08;100.00;101828.75;5385473;26;93921;-81
2024/05/07 05:35:14;;;;;;;15.20;7.93;;;;;;;13.14;100.00;101822.38;5383371;26;93849;-82
2024/05/07 05:37:43;;;;;;;11.27;6.75;;;;;;;13.19;100.00;101823.94;5397458;26;94636;-82
2024/05/07 05:40:09;;;;;;;12.30;5.75;;;;;;;13.32;100.00;101842.00;5386602;26;94640;-82
2024/05/07 05:42:34;;;;;;;11.57;6.22;;;;;;;13.22;100.00;101806.22;5392327;26;94413;-82
2024/05/07 05:45:00;;;;;;;12.40;6.40;;;;;;;13.30;100.00;101815.63;5394431;25;93859;-82
2024/05/07 05:47:25;;;;;;;12.52;6.75;;;;;;;13.39;100.00;101814.41;5395398;26;94334;-82
2024/05/07 05:49:53;;;;;;;11.50;5.55;;;;;;;13.47;100.00;101824.69;5386042;26;94604;-82
2024/05/07 05:52:19;;;;;;;10.00;6.20;;;;;;;13.71;100.00;101842.25;5385331;26;93890;-82
2024/05/07 05:54:44;;;;;;;12.52;6.35;;;;;;;13.83;100.00;101849.69;5389335;26;93927;-82
2024/05/07 05:57:13;;;;;;;10.85;6.13;;;;;;;13.95;100.00;101858.09;5396187;26;94823;-82
2024/05/07 05:59:38;;;;;;;10.80;5.63;;;;;;;14.07;100.00;101850.53;5401779;26;95017;-82
2024/05/07 06:02:04;;;;;;;9.30;5.10;;;;;;;14.19;100.00;101848.31;5393717;26;94479;-82
2024/05/07 06:04:29;;;;;;;9.73;5.55;;;;;;;14.19;100.00;101840.34;5401151;26;94056;-82
2024/05/07 06:06:55;;;;;;;12.63;5.68;;;;;;;14.39;100.00;101853.63;5354197;26;97091;-82
2024/05/07 06:09:20;;;;;;;11.30;5.35;;;;;;;14.33;100.00;101838.81;5384913;26;96183;-82
2024/05/07 06:11:46;;;;;;;10.82;4.95;;;;;;;14.54;100.00;101858.31;5379533;26;94523;-82
2024/05/07 06:14:11;;;;;;;10.02;4.82;;;;;;;14.65;100.00;101864.00;5391042;26;94016;-82
2024/05/07 06:16:36;;;;;;;11.20;5.63;;;;;;;14.70;100.00;101862.94;5385447;26;97432;-82
2024/05/07 06:19:02;;;;;;;10.73;5.25;;;;;;;14.80;100.00;101862.47;5383748;26;96394;-82
2024/05/07 06:21:27;;;;;;;10.18;4.93;;;;;;;14.88;100.00;101870.97;5385870;26;94833;-82
2024/05/07 06:23:53;;;;;;;10.20;4.68;;;;;;;14.98;100.00;101881.16;5387923;26;94741;-82
2024/05/07 06:26:19;;;;;;;8.10;4.68;;;;;;;14.89;100.00;101854.13;5389713;25;95580;-82
2024/05/07 06:28:44;;;;;;;7.93;5.15;;;;;;;15.15;100.00;101883.94;5387316;26;94700;-82
2024/05/07 06:31:11;;;;;;;6.97;4.30;;;;;;;15.17;100.00;101886.50;5388170;26;93759;-82
2024/05/07 06:33:36;;;;;;;7.28;3.92;;;;;;;15.18;100.00;101862.53;5384795;26;96173;-82
2024/05/07 06:36:02;;;;;;;7.05;4.28;;;;;;;15.19;100.00;101851.03;5388349;26;94824;-81
2024/05/07 06:38:27;;;;;;;8.40;3.92;;;;;;;15.46;100.00;101896.66;5388378;25;95917;-81
2024/05/07 06:40:53;;;;;;;10.82;4.10;;;;;;;15.53;100.00;101892.78;5384105;26;93935;-81
2024/05/07 06:43:18;;;;;;;9.25;4.10;;;;;;;15.63;100.00;101902.03;5386556;26;94090;-82
2024/05/07 06:45:44;;;;;;;9.45;3.60;;;;;;;15.72;100.00;101899.91;5385101;26;94363;-81
2024/05/07 06:48:13;;;;;;;7.38;4.40;;;;;;;15.75;100.00;101895.31;5387993;26;96555;-82
2024/05/07 06:50:39;;;;;;;6.38;3.30;;;;;;;15.90;100.00;101908.81;5356252;26;93831;-82
2024/05/07 06:53:06;;;;;;;7.38;3.40;;;;;;;15.97;100.00;101905.78;5389000;26;93837;-81
2024/05/07 06:55:32;;;;;;;7.03;3.80;;;;;;;15.90;100.00;101887.56;5391254;25;94627;-82
2024/05/07 06:57:57;;;;;;;7.40;4.55;;;;;;;15.97;100.00;101895.16;5392210;25;94601;-82
2024/05/07 07:00:23;;;;;;;8.10;4.47;;;;;;;16.17;100.00;101922.56;5424728;25;93763;-83
2024/05/07 07:02:48;;;;;;;8.45;4.00;;;;;;;16.18;100.00;101906.56;5426528;25;93969;-83
2024/05/07 07:05:13;;;;;;;10.23;3.90;;;;;;;16.24;100.00;101916.88;5395267;25;97425;-83
2024/05/07 07:07:42;;;;;;;5.50;3.20;;;;;;;16.29;100.00;101917.50;5423309;25;95193;-83
2024/05/07 07:10:10;;;;;;;8.20;3.88;;;;;;;16.41;100.00;101920.50;5395036;25;94023;-83
2024/05/07 07:12:35;;;;;;;7.32;3.38;;;;;;;16.49;100.00;101924.50;5419029;25;93910;-83
2024/05/07 07:15:01;;;;;;;7.35;2.90;;;;;;;16.49;100.00;101911.22;5396905;25;94757;-83
2024/05/07 07:17:27;;;;;;;8.00;3.25;;;;;;;16.67;100.00;101924.50;5431075;25;94430;-84
2024/05/07 07:19:53;;;;;;;7.28;3.17;;;;;;;16.60;100.00;101905.34;5395040;25;93786;-83
2024/05/07 07:22:21;;;;;;;8.45;3.42;;;;;;;16.84;100.00;101937.84;5394839;25;94024;-83
2024/05/07 07:24:47;;;;;;;6.18;2.83;;;;;;;16.89;100.00;101932.31;5395184;25;94435;-84
2024/05/07 07:27:14;;;;;;;4.50;2.60;;;;;;;16.69;100.00;101896.91;5419937;25;94373;-83
2024/05/07 07:29:39;;;;;;;5.35;2.83;;;;;;;16.92;100.00;101919.69;5424972;25;94032;-84
2024/05/07 07:32:05;;;;;;;6.07;2.80;;;;;;;17.05;100.00;101936.72;5425282;25;95381;-83
2024/05/07 07:34:31;;;;;;;6.65;3.20;;;;;;;17.15;100.00;101944.25;5365881;25;96945;-83
2024/05/07 07:36:58;;;;;;;6.68;3.30;;;;;;;17.11;100.00;101922.25;5428802;25;94799;-83
2024/05/07 07:39:24;;;;;;;7.53;3.20;;;;;;;17.14;100.00;101922.06;5429736;25;93839;-83
2024/05/07 07:41:50;;;;;;;7.32;3.30;;;;;;;17.38;100.00;101957.22;5397369;25;94018;-83
2024/05/07 07:44:15;;;;;;;6.30;3.28;;;;;;;17.49;100.00;101962.81;5425686;25;94615;-84
2024/05/07 07:46:42;;;;;;;7.60;3.50;;;;;;;17.54;100.00;101958.09;5430419;25;94260;-83
2024/05/07 07:49:07;;;;;;;7.40;3.75;;;;;;;17.52;100.00;101945.81;5431644;25;93818;-83
2024/05/07 07:51:33;;;;;;;8.07;3.20;;;;;;;17.77;100.00;101967.53;5396169;25;93990;-84
2024/05/07 07:53:58;;;;;;;6.28;2.75;;;;;;;17.65;100.00;101938.88;5430879;25;95722;-83
2024/05/07 07:56:24;;;;;;;4.78;2.95;;;;;;;17.88;100.00;101964.28;5427482;25;95342;-83
2024/05/07 07:58:55;;;;;;;6.88;3.20;;;;;;;17.95;100.00;101967.47;5426137;25;94460;-83
2024/05/07 08:01:21;;;;;;;6.10;3.20;;;;;;;18.01;100.00;101973.31;5395173;25;93970;-83
2024/05/07 08:03:47;;;;;;;8.23;3.17;;;;;;;18.04;100.00;101969.63;5418489;25;94322;-83
2024/05/07 08:06:15;;;;;;;5.45;2.80;;;;;;;18.21;100.00;101987.34;5392785;25;94700;-84
2024/05/07 08:08:41;;;;;;;5.18;3.05;;;;;;;18.10;100.00;101965.75;5399818;25;93734;-84
2024/05/07 08:11:07;;;;;;;5.38;2.97;;;;;;;18.13;100.00;101973.59;5415426;25;94663;-81
2024/05/07 08:13:33;;;;;;;7.53;3.08;;;;;;;18.29;100.00;101998.41;5432064;25;95020;-81
2024/05/07 08:15:59;;;;;;;5.05;2.83;;;;;;;18.19;100.00;101971.44;5389341;25;96575;-82
2024/05/07 08:18:25;;;;;;;5.97;2.78;;;;;;;18.24;100.00;101971.16;5419043;25;93996;-82
2024/05/07 08:20:56;;;;;;;5.47;3.03;;;;;;;18.20;100.00;101957.16;5412790;25;94052;-82
2024/05/07 08:23:25;;;;;;;5.90;3.33;;;;;;;18.46;100.00;101987.66;5396754;25;94500;-83
2024/05/07 08:25:51;;;;;;;6.70;3.25;;;;;;;18.51;100.00;101982.06;5394732;25;94442;-83
2024/05/07 08:28:24;;;;;;;5.28;3.10;;;;;;;18.67;100.00;102011.38;5390815;25;93792;-87
2024/05/07 08:30:51;;;;;;;7.30;3.47;;;;;;;18.75;100.00;102007.34;5390997;25;94845;-83
2024/05/07 08:33:19;;;;;;;6.85;3.28;;;;;;;18.74;100.00;101992.28;5392435;25;94822;-84
2024/05/07 08:35:44;;;;;;;5.75;2.88;;;;;;;18.85;100.00;102001.50;5427730;25;94806;-83
2024/05/07 08:38:14;;;;;;;5.55;2.80;;;;;;;18.97;100.00;102008.78;5426230;25;93941;-81
2024/05/07 08:40:39;;;;;;;5.13;2.50;;;;;;;18.90;100.00;102000.25;5392304;25;94323;-81
2024/05/07 08:43:07;;;;;;;5.60;2.47;;;;;;;19.15;100.00;102025.50;5389664;25;94692;-81
2024/05/07 08:45:35;;;;;;;4.20;2.13;;;;;;;19.19;100.00;102022.56;5391832;25;94696;-81
2024/05/07 08:48:05;;;;;;;4.88;2.50;;;;;;;19.24;98.86;102036.50;5388868;25;93755;-81
2024/05/07 08:50:32;;;;;;;5.68;2.33;;;;;;;19.31;100.00;102039.66;5400285;25;94365;-81
2024/05/07 08:52:57;;;;;;;3.78;2.15;;;;;;;19.40;100.00;102038.25;5394312;25;96250;-81
2024/05/07 08:55:25;;;;;;;7.82;2.60;;;;;;;19.47;100.00;102035.09;5387514;26;94328;-81
2024/05/07 08:57:51;;;;;;;3.95;2.40;;;;;;;19.42;100.00;102023.00;5384144;26;93841;-81
2024/05/07 09:00:17;;;;;;;5.90;2.78;;;;;;;19.53;100.00;102023.19;5386011;26;94067;-80
2024/05/07 09:02:43;;;;;;;6.05;2.90;;;;;;;19.70;100.00;102036.41;5386282;26;94561;-81
2024/05/07 09:05:09;;;;;;;6.43;3.25;;;;;;;19.73;100.00;102038.03;5385147;25;95586;-81
2024/05/07 09:07:35;;;;;;;6.00;3.08;;;;;;;19.65;100.00;102017.13;5387065;26;94206;-81
2024/05/07 09:10:04;;;;;;;7.15;3.13;;;;;;;19.89;100.00;102049.47;5372254;26;94085;-82
2024/05/07 09:12:29;;;;;;;5.57;2.50;;;;;;;19.71;100.00;102008.72;5385792;26;96663;-81
2024/05/07 09:14:54;;;;;;;4.95;2.47;;;;;;;19.83;99.55;102019.59;5390401;26;97354;-81
2024/05/07 09:17:20;;;;;;;5.72;2.80;;;;;;;20.00;97.90;102051.50;5363290;26;93986;-81
2024/05/07 09:19:46;;;;;;;7.05;2.60;;;;;;;20.10;97.18;102057.09;5390290;26;93888;-83
2024/05/07 09:22:18;;;;;;;5.78;2.60;;;;;;;20.11;95.37;102058.84;5381957;26;94642;-83
2024/05/07 09:24:53;;;;;;;4.38;2.60;;;;;;;20.07;94.05;102044.81;5388534;26;95026;-83
2024/05/07 09:30:41;;;;;;;5.00;2.50;;;;;;;19.97;94.14;102023.13;5391255;26;94177;-86
2024/05/07 09:33:13;;;;;;;6.53;2.80;;;;;;;20.14;92.61;102053.28;5384132;25;95083;-86
2024/05/07 09:35:42;;;;;;;6.13;2.60;;;;;;;20.27;95.04;102074.78;5360687;26;95007;-86
2024/05/07 09:38:11;;;;;;;5.18;2.75;;;;;;;20.32;95.56;102076.19;5383542;26;93794;-87
2024/05/07 09:40:41;;;;;;;6.43;2.72;;;;;;;20.21;94.89;102057.28;5388355;26;94089;-88
2024/05/07 09:43:17;;;;;;;6.13;3.10;;;;;;;20.20;91.19;102048.41;5390151;26;94791;-87
2024/05/07 09:46:01;;;;;;;7.85;3.20;;;;;;;20.26;92.38;102065.91;5390127;26;94463;-86
2024/05/07 09:48:37;;;;;;;7.03;3.13;;;;;;;20.18;94.67;102042.31;5391370;26;93872;-86
2024/05/07 09:51:04;;;;;;;5.37;3.10;;;;;;;20.32;94.04;102060.13;5385449;26;93832;-86
2024/05/07 09:53:33;;;;;;;7.60;3.35;;;;;;;20.52;93.99;102082.09;5384117;26;94676;-87
2024/05/07 09:56:04;;;;;;;5.50;2.75;;;;;;;20.53;94.46;102065.97;5390926;26;94859;-83
2024/05/07 09:58:41;;;;;;;5.45;3.08;;;;;;;20.59;92.79;102065.53;5415078;25;93743;-87
2024/05/07 10:01:19;;;;;;;7.33;3.80;;;;;;;20.72;94.25;102084.38;5382754;26;94117;-87
2024/05/07 10:04:04;;;;;;;7.22;4.05;;;;;;;20.58;93.48;102044.25;5389871;26;94734;-86
2024/05/07 10:14:11;;;;;;;5.30;3.63;;;;;;;20.88;93.13;102065.47;6124384;21;97396;-86
2024/05/07 10:21:51;;;;;;;7.05;3.70;;;;;;;20.98;92.07;102086.16;6221527;21;93952;-85
2024/05/07 10:24:22;;;;;;;5.10;2.88;;;;;;;21.05;92.89;102091.13;6240785;21;94155;-83
2024/05/07 10:27:09;;;;;;;5.82;2.95;;;;;;;21.12;85.74;102089.75;5315899;26;94721;-85
2024/05/07 10:29:37;;;;;;;7.45;3.03;;;;;;;21.20;91.18;102088.25;5326276;26;93794;-85
2024/05/07 10:32:05;;;;;;;5.60;2.83;;;;;;;21.41;90.29;102093.19;5335607;26;94030;-84
2024/05/07 10:34:51;;;;;;;6.25;2.90;;;;;;;21.42;86.18;102076.13;5334813;26;94682;-84
2024/05/07 10:37:17;;;;;;;6.65;2.80;;;;;;;21.54;89.83;102080.63;5321638;26;94706;-84
2024/05/07 10:39:43;;;;;;;5.30;2.72;;;;;;;21.52;90.51;102095.09;5319142;26;93905;-84
2024/05/07 10:42:11;;;;;;;4.72;2.40;;;;;;;21.49;90.38;102085.47;5318190;26;94063;-84
2024/05/07 10:44:41;;;;;;;5.90;2.30;;;;;;;21.62;90.37;102088.16;5342617;26;94469;-84
2024/05/07 10:47:08;;;;;;;5.10;2.80;;;;;;;21.58;89.48;102084.81;5334088;26;96472;-84
2024/05/07 10:49:33;;;;;;;6.22;2.58;;;;;;;21.59;89.15;102107.97;5339226;26;94307;-84
2024/05/07 10:52:04;;;;;;;6.38;2.72;;;;;;;21.37;86.08;102099.69;5330641;26;94068;-84
2024/05/07 10:54:30;;;;;;;5.40;2.45;;;;;;;21.12;89.39;102089.75;5344652;26;95124;-84
2024/05/07 10:56:55;;;;;;;3.88;2.60;;;;;;;21.02;90.35;102102.88;5337772;26;94693;-84
2024/05/07 10:59:22;;;;;;;6.25;3.38;;;;;;;21.07;90.66;102119.53;5338831;26;93799;-84
2024/05/07 11:01:48;;;;;;;7.20;2.42;;;;;;;20.89;91.58;102093.94;5320464;26;94844;-84
2024/05/07 11:04:13;;;;;;;4.53;2.35;;;;;;;20.97;91.55;102113.03;5341141;26;94907;-83
2024/05/07 11:06:40;;;;;;;5.60;2.60;;;;;;;21.00;92.57;102120.03;5320910;26;94453;-83
2024/05/07 11:09:18;;;;;;;4.93;2.20;;;;;;;21.05;93.62;102126.78;5321063;26;94081;-83
2024/05/07 11:11:44;;;;;;;4.70;2.60;;;;;;;21.12;94.07;102120.06;5333546;26;93835;-83
2024/05/07 11:14:10;;;;;;;7.05;2.33;;;;;;;21.07;93.58;102099.91;5321823;26;94872;-83
2024/05/07 11:16:37;;;;;;;4.05;2.65;;;;;;;21.11;93.99;102120.19;5349733;26;94623;-83
2024/05/07 11:19:02;;;;;;;5.13;2.80;;;;;;;20.93;94.23;102112.38;5335977;26;93872;-83
2024/05/07 11:21:27;;;;;;;4.78;2.15;;;;;;;21.02;95.33;102123.44;5342821;26;93789;-82
2024/05/07 11:23:53;;;;;;;10.98;3.03;;;;;;;21.02;94.26;102126.97;5322860;26;94707;-84
2024/05/07 11:26:18;;;;;;;5.85;2.38;;;;;;;20.95;94.08;102133.72;5322880;26;94747;-83
2024/05/07 11:28:43;;;;;;;4.07;2.38;;;;;;;20.82;94.26;102124.75;5346693;26;93892;-84